Time;durP1;ratioP1;P1;durP2;ratioP2;P2;SDS_P1;SDS_P2;PMS_P1;PMS_P2;Temp;Humidity;BMP_temperature;BMP_pressure;BME280_temperature;BME280_humidity;BME280_pressure;Samples;Min_cycle;Max_cycle;Signal;HPM_P1;HPM_P2
2023/09/03 03:06:22;;;;;;;13.90;7.40;;;;;;;15.84;91.32;99657.70;106921;1304;557790;-44
2023/09/03 03:08:48;;;;;;;11.70;8.00;;;;;;;15.80;91.18;99662.59;107237;1314;22326;-45
2023/09/03 03:11:17;;;;;;;9.00;7.20;;;;;;;15.79;90.25;99663.73;107301;1303;23161;-46
2023/09/03 03:13:44;;;;;;;8.90;7.00;;;;;;;15.80;89.42;99665.27;106877;1294;22448;-52
2023/09/03 03:16:15;;;;;;;13.60;7.50;;;;;;;15.80;89.48;99665.92;107276;1313;22436;-49
2023/09/03 03:18:43;;;;;;;10.20;7.20;;;;;;;15.80;89.26;99665.75;107157;1311;167093;-44
2023/09/03 03:21:10;;;;;;;10.50;6.90;;;;;;;15.80;88.80;99666.15;107484;1304;23402;-42
2023/09/03 03:23:36;;;;;;;;;;;;;;;15.80;88.21;99672.34;107411;1311;23292;-47
2023/09/03 03:26:02;;;;;;;12.50;7.60;;;;;;;15.79;87.57;99673.11;107489;1310;22474;-46
2023/09/03 03:28:32;;;;;;;17.60;7.60;;;;;;;15.78;87.38;99674.23;107515;1311;22350;-45
2023/09/03 03:31:10;;;;;;;12.20;7.30;;;;;;;15.79;87.10;99673.16;107496;1311;22238;-45
2023/09/03 03:33:36;;;;;;;10.30;6.80;;;;;;;15.79;86.91;99675.27;107503;1311;22335;-42
2023/09/03 03:36:02;;;;;;;14.80;7.60;;;;;;;15.79;86.95;99676.48;107508;1308;22273;-49
2023/09/03 03:38:27;;;;;;;11.20;6.90;;;;;;;15.78;86.92;99675.69;107532;1310;22281;-45
2023/09/03 03:40:53;;;;;;;11.60;6.70;;;;;;;15.78;86.58;99677.27;107524;1304;23118;-39
2023/09/03 03:43:18;;;;;;;25.50;7.20;;;;;;;15.78;86.59;99680.98;107529;1310;22733;-45
2023/09/03 03:45:43;;;;;;;12.20;7.10;;;;;;;15.77;87.11;99680.35;107529;1310;22480;-45
2023/09/03 03:48:08;;;;;;;12.90;7.30;;;;;;;15.75;87.13;99678.49;107537;1288;22914;-48
2023/09/03 03:50:34;;;;;;;10.60;7.80;;;;;;;15.73;86.78;99677.03;107518;1310;22247;-47
2023/09/03 03:53:00;;;;;;;9.60;6.90;;;;;;;15.71;86.92;99675.00;107530;1310;22284;-48
2023/09/03 03:55:25;;;;;;;11.60;7.50;;;;;;;15.69;87.20;99683.31;107513;1310;22350;-44
2023/09/03 03:57:50;;;;;;;13.90;8.10;;;;;;;15.67;86.90;99686.96;107519;1310;22534;-47
2023/09/03 04:00:16;;;;;;;11.90;8.40;;;;;;;15.66;87.15;99690.42;107520;1310;24241;-46
2023/09/03 04:02:41;;;;;;;13.60;8.70;;;;;;;15.63;87.42;99689.34;107536;1304;22267;-48
2023/09/03 04:05:06;;;;;;;11.10;8.00;;;;;;;15.60;87.70;99688.02;107534;1307;22522;-45
2023/09/03 04:07:31;;;;;;;20.70;9.10;;;;;;;15.57;88.38;99688.95;107549;1310;22243;-44
2023/09/03 04:09:59;;;;;;;15.10;8.70;;;;;;;15.54;88.73;99688.92;107532;1310;22473;-50
2023/09/03 04:12:24;;;;;;;17.20;8.20;;;;;;;15.52;88.89;99686.42;107546;1310;22362;-51
2023/09/03 04:14:49;;;;;;;13.30;8.80;;;;;;;15.50;88.94;99688.02;107521;1310;23069;-49
2023/09/03 04:17:14;;;;;;;13.40;9.00;;;;;;;15.47;88.87;99687.87;107496;1310;22917;-48
2023/09/03 04:19:40;;;;;;;14.90;8.90;;;;;;;15.43;88.61;99687.92;107509;1294;22428;-48
2023/09/03 04:22:06;;;;;;;11.30;9.00;;;;;;;15.41;88.56;99690.73;107577;1310;22600;-50
2023/09/03 04:24:31;;;;;;;18.30;9.50;;;;;;;15.39;88.99;99696.16;107573;1308;22956;-44
2023/09/03 04:26:56;;;;;;;13.50;9.30;;;;;;;15.39;88.66;99702.21;107585;1294;22426;-45
2023/09/03 04:29:22;;;;;;;16.70;9.90;;;;;;;15.40;88.70;99704.63;107596;1308;22277;-44
2023/09/03 04:31:47;;;;;;;15.40;9.50;;;;;;;15.40;89.00;99705.84;107581;1310;22318;-43
2023/09/03 04:34:13;;;;;;;20.50;10.20;;;;;;;15.39;89.26;99707.17;107595;1294;22224;-44
2023/09/03 04:36:39;;;;;;;17.90;9.80;;;;;;;15.38;89.33;99706.50;107618;1310;22278;-43
2023/09/03 04:39:04;;;;;;;21.50;10.30;;;;;;;15.40;89.45;99711.16;107568;1310;22260;-50
2023/09/03 04:41:29;;;;;;;16.30;10.10;;;;;;;15.40;88.99;99708.08;107576;1287;22250;-45
2023/09/03 04:44:08;;;;;;;21.00;10.70;;;;;;;15.40;89.62;99707.81;107578;1310;22141;-45
2023/09/03 04:46:34;;;;;;;18.50;9.90;;;;;;;15.41;89.58;99703.30;107583;1304;22511;-45
2023/09/03 04:48:59;;;;;;;18.70;10.00;;;;;;;15.43;89.48;99699.84;107579;1310;22294;-43
2023/09/03 04:51:24;;;;;;;15.50;10.00;;;;;;;15.47;89.78;99696.55;107591;1310;22268;-44
2023/09/03 04:53:50;;;;;;;16.20;10.10;;;;;;;15.50;89.93;99700.58;107582;1310;25483;-50
2023/09/03 04:56:15;;;;;;;19.50;10.10;;;;;;;15.53;90.48;99702.05;107575;1305;22249;-48
2023/09/03 04:58:40;;;;;;;16.40;9.70;;;;;;;15.58;90.56;99701.59;107590;1310;22235;-45
2023/09/03 05:01:16;;;;;;;16.20;9.40;;;;;;;15.61;90.50;99699.41;107571;1301;22376;-50
2023/09/03 05:03:42;;;;;;;18.40;10.00;;;;;;;15.63;90.53;99697.67;107599;1310;22303;-43
2023/09/03 05:06:12;;;;;;;19.50;9.70;;;;;;;15.66;90.54;99695.88;107571;1305;22464;-44
2023/09/03 05:08:38;;;;;;;14.90;9.60;;;;;;;15.68;90.40;99694.33;107588;1310;22250;-46
2023/09/03 05:11:12;;;;;;;12.80;10.00;;;;;;;15.72;90.00;99694.56;107570;1309;22229;-53
2023/09/03 05:13:37;;;;;;;15.00;9.20;;;;;;;15.79;89.66;99701.88;107586;1310;22302;-45
2023/09/03 05:16:04;;;;;;;14.10;9.80;;;;;;;15.88;89.37;99706.89;107574;1310;22499;-50
2023/09/03 05:18:30;;;;;;;15.90;9.70;;;;;;;15.95;89.05;99708.36;107591;1294;22278;-45
2023/09/03 05:20:55;;;;;;;13.40;8.60;;;;;;;16.02;88.72;99709.48;107578;1310;22474;-48
2023/09/03 05:23:21;;;;;;;12.60;9.20;;;;;;;16.06;88.09;99711.52;107587;1310;23082;-42
2023/09/03 05:25:46;;;;;;;14.50;8.80;;;;;;;16.06;87.77;99716.09;107562;1310;22520;-51
2023/09/03 05:28:13;;;;;;;12.60;8.40;;;;;;;16.06;87.57;99713.82;107606;1310;22367;-48
2023/09/03 05:30:38;;;;;;;10.90;8.70;;;;;;;16.06;87.51;99720.87;107605;1301;22257;-46
2023/09/03 05:33:03;;;;;;;20.10;9.80;;;;;;;16.07;87.32;99716.22;107576;1310;22306;-48
2023/09/03 05:35:29;;;;;;;13.90;8.60;;;;;;;16.09;87.19;99718.71;107601;1302;22555;-47
2023/09/03 05:37:54;;;;;;;12.70;9.10;;;;;;;16.09;87.09;99715.84;107570;1310;22254;-45
2023/09/03 05:40:19;;;;;;;15.90;9.10;;;;;;;16.10;87.09;99716.83;107578;1310;23210;-50
2023/09/03 05:42:45;;;;;;;13.80;8.60;;;;;;;16.16;87.20;99718.06;107569;1310;22436;-47
2023/09/03 05:45:10;;;;;;;13.00;8.70;;;;;;;16.22;87.13;99717.23;107566;1308;22241;-43
2023/09/03 05:47:35;;;;;;;17.80;8.60;;;;;;;16.27;86.79;99718.48;107573;1310;23068;-47
2023/09/03 05:50:00;;;;;;;13.20;8.30;;;;;;;16.33;86.26;99722.84;107562;1308;22532;-46
2023/09/03 05:52:26;;;;;;;14.00;8.50;;;;;;;16.38;86.05;99729.19;107552;1310;22207;-48
2023/09/03 05:54:51;;;;;;;17.00;8.90;;;;;;;16.44;85.92;99733.17;107588;1310;22230;-48
2023/09/03 05:57:17;;;;;;;11.80;8.90;;;;;;;16.50;85.87;99734.70;107555;1310;23165;-42
2023/09/03 05:59:42;;;;;;;11.60;7.90;;;;;;;16.55;85.39;99736.79;107574;1310;22260;-44
2023/09/03 06:02:07;;;;;;;10.90;8.70;;;;;;;16.58;85.33;99733.56;107575;1310;22647;-46
2023/09/03 06:04:32;;;;;;;13.40;7.70;;;;;;;16.64;85.37;99735.80;107572;1310;22254;-46
2023/09/03 06:06:58;;;;;;;14.30;8.10;;;;;;;16.70;85.13;99736.76;107554;1310;22444;-46
2023/09/03 06:09:23;;;;;;;11.50;7.50;;;;;;;16.75;85.03;99731.08;107543;1310;22257;-45
2023/09/03 06:11:49;;;;;;;11.20;8.30;;;;;;;16.79;84.77;99731.15;107575;1290;22441;-43
2023/09/03 06:14:14;;;;;;;13.30;7.50;;;;;;;16.82;84.47;99736.27;107558;1310;22271;-46
2023/09/03 06:16:39;;;;;;;13.50;7.40;;;;;;;16.88;84.45;99742.06;107537;1310;23335;-43
2023/09/03 06:19:05;;;;;;;10.40;7.30;;;;;;;16.96;84.43;99742.17;106883;1310;22241;-43
2023/09/03 06:21:30;;;;;;;15.40;7.80;;;;;;;17.02;84.24;99742.42;107568;1310;23281;-49
2023/09/03 06:23:56;;;;;;;12.40;8.50;;;;;;;17.05;84.08;99738.95;107549;1310;22287;-44
2023/09/03 06:26:21;;;;;;;11.30;7.10;;;;;;;17.05;83.78;99739.33;107578;1301;22252;-50
2023/09/03 06:28:46;;;;;;;11.20;6.80;;;;;;;17.11;83.95;99739.30;107537;1310;22252;-44
2023/09/03 06:31:12;;;;;;;12.70;7.00;;;;;;;17.19;84.17;99748.07;107566;1310;22458;-46
2023/09/03 06:33:38;;;;;;;12.40;6.10;;;;;;;17.25;83.50;99748.32;107557;1310;22508;-46
2023/09/03 06:36:03;;;;;;;11.50;5.90;;;;;;;17.31;83.17;99750.52;107564;1301;22364;-47
2023/09/03 06:38:29;;;;;;;9.00;6.20;;;;;;;17.38;83.09;99753.89;107565;1310;22398;-48
2023/09/03 06:40:54;;;;;;;9.90;6.10;;;;;;;17.45;83.20;99755.32;107568;1307;22331;-44
2023/09/03 06:43:20;;;;;;;9.00;5.90;;;;;;;17.51;82.68;99758.18;107571;1310;22609;-44
2023/09/03 06:45:45;;;;;;;10.40;6.30;;;;;;;17.56;81.38;99763.14;107557;1304;22458;-44
2023/09/03 06:48:11;;;;;;;7.50;5.70;;;;;;;17.63;81.51;99762.09;107556;1310;22323;-49
2023/09/03 06:50:36;;;;;;;10.20;6.20;;;;;;;17.67;81.55;99768.84;107569;1308;22272;-44
2023/09/03 06:53:01;;;;;;;9.60;6.40;;;;;;;17.70;81.47;99770.45;107566;1310;22586;-46
2023/09/03 06:55:27;;;;;;;10.30;5.80;;;;;;;17.73;81.02;99768.08;107551;1302;22432;-47
2023/09/03 06:57:52;;;;;;;11.10;6.10;;;;;;;17.77;80.97;99770.36;107563;1310;22497;-45
2023/09/03 07:00:17;;;;;;;9.80;6.30;;;;;;;17.82;80.65;99773.58;107548;1310;22260;-49
2023/09/03 07:02:43;;;;;;;10.40;5.50;;;;;;;17.91;80.75;99778.89;107560;1304;22226;-45
2023/09/03 07:05:08;;;;;;;8.20;6.10;;;;;;;17.98;80.13;99778.67;107544;1310;23179;-46
2023/09/03 07:07:35;;;;;;;12.60;5.20;;;;;;;18.10;80.10;99780.80;107549;1307;22237;-45
2023/09/03 07:10:01;;;;;;;6.90;4.60;;;;;;;18.22;80.25;99782.36;107548;1310;22248;-44
2023/09/03 07:12:26;;;;;;;5.90;4.30;;;;;;;18.34;79.79;99789.19;107539;1310;22342;-47
2023/09/03 07:14:52;;;;;;;7.80;4.10;;;;;;;18.42;79.67;99796.70;107559;1310;22222;-44
2023/09/03 07:17:17;;;;;;;9.80;4.60;;;;;;;18.47;78.79;99803.29;107564;1304;22267;-44
2023/09/03 07:19:43;;;;;;;8.00;4.10;;;;;;;18.50;78.34;99806.56;107544;1310;22263;-49
2023/09/03 07:22:09;;;;;;;6.60;4.30;;;;;;;18.51;78.43;99809.34;107559;1310;22246;-50
2023/09/03 07:24:34;;;;;;;6.00;3.90;;;;;;;18.54;78.11;99812.78;107563;1310;22248;-45
2023/09/03 07:26:59;;;;;;;6.80;4.10;;;;;;;18.55;77.99;99815.79;107549;1310;22361;-52
2023/09/03 07:29:24;;;;;;;7.60;3.60;;;;;;;18.53;76.76;99815.41;107550;1310;23095;-50
2023/09/03 07:31:50;;;;;;;4.10;3.40;;;;;;;18.53;76.89;99816.09;107554;1310;22393;-43
2023/09/03 07:34:16;;;;;;;3.60;3.20;;;;;;;18.56;77.40;99819.73;107528;1310;22245;-50
2023/09/03 07:36:41;;;;;;;6.90;3.40;;;;;;;18.56;77.33;99821.69;107541;1310;22304;-52
2023/09/03 07:39:10;;;;;;;4.90;3.40;;;;;;;18.58;77.54;99822.09;107570;1310;22454;-51
2023/09/03 07:41:39;;;;;;;4.70;3.60;;;;;;;18.65;77.69;99822.23;107562;1310;22656;-47
2023/09/03 07:44:04;;;;;;;11.40;4.00;;;;;;;18.70;77.18;99824.48;107565;1310;23035;-43
2023/09/03 07:46:30;;;;;;;11.00;4.30;;;;;;;18.72;77.11;99821.47;107551;1303;22447;-48
2023/09/03 07:48:55;;;;;;;7.60;4.60;;;;;;;18.75;77.35;99817.14;107556;1309;22257;-41
2023/09/03 07:51:21;;;;;;;9.10;4.20;;;;;;;18.78;77.18;99818.02;107567;1307;22306;-47
2023/09/03 07:53:47;;;;;;;6.20;4.70;;;;;;;18.75;76.83;99818.57;107570;1310;22448;-43
2023/09/03 07:56:16;;;;;;;8.80;4.10;;;;;;;18.66;76.80;99816.80;107556;1305;23115;-46
2023/09/03 07:58:44;;;;;;;5.60;4.20;;;;;;;18.60;76.64;99818.19;107577;1310;22434;-46
2023/09/03 08:01:15;;;;;;;6.80;4.40;;;;;;;18.55;77.05;99821.27;107553;1307;22323;-46
2023/09/03 08:03:41;;;;;;;4.30;3.80;;;;;;;18.52;77.27;99818.13;107542;1309;22232;-41
2023/09/03 08:06:07;;;;;;;5.80;4.00;;;;;;;18.53;77.50;99818.91;107567;1304;22302;-45
2023/09/03 08:08:33;;;;;;;6.70;3.90;;;;;;;18.56;77.20;99820.88;107563;1294;22271;-41
2023/09/03 08:10:58;;;;;;;4.80;4.00;;;;;;;18.58;77.10;99821.90;107542;1301;22481;-43
2023/09/03 08:13:24;;;;;;;10.00;3.80;;;;;;;18.59;77.41;99818.80;107586;1310;22578;-43
2023/09/03 08:15:49;;;;;;;6.60;4.00;;;;;;;18.63;77.63;99813.18;107563;1308;24838;-45
2023/09/03 08:18:15;;;;;;;6.30;3.60;;;;;;;18.68;77.70;99815.27;107548;1309;22216;-45
2023/09/03 08:20:41;;;;;;;6.50;3.80;;;;;;;18.72;77.29;99812.98;107562;1310;22286;-48
2023/09/03 08:23:10;;;;;;;5.10;3.60;;;;;;;18.76;76.76;99815.45;107588;1301;22296;-48
2023/09/03 08:25:35;;;;;;;7.40;3.90;;;;;;;18.82;76.42;99817.71;107567;1310;22301;-46
2023/09/03 08:28:00;;;;;;;6.60;3.70;;;;;;;18.88;76.69;99817.20;107565;1310;22320;-45
2023/09/03 08:30:25;;;;;;;4.50;2.90;;;;;;;18.95;75.84;99815.77;107546;1310;22405;-44
2023/09/03 08:32:51;;;;;;;3.10;2.40;;;;;;;19.01;75.20;99816.85;107557;1310;23335;-48
2023/09/03 08:35:16;;;;;;;5.00;2.20;;;;;;;19.10;75.22;99817.15;107569;1310;23185;-43
2023/09/03 08:37:41;;;;;;;2.90;2.30;;;;;;;19.19;74.61;99816.81;107565;1291;22446;-45
2023/09/03 08:40:07;;;;;;;3.90;2.40;;;;;;;19.29;74.36;99819.04;107550;1310;22336;-41
2023/09/03 08:42:33;;;;;;;2.90;2.40;;;;;;;19.34;71.95;99813.29;107561;1310;22439;-43
2023/09/03 08:45:06;;;;;;;2.50;1.90;;;;;;;19.43;71.79;99818.19;107559;1310;22243;-45
2023/09/03 08:47:36;;;;;;;4.60;2.10;;;;;;;19.49;69.86;99818.94;107547;1310;22258;-43
2023/09/03 08:50:02;;;;;;;2.40;2.10;;;;;;;19.57;70.63;99820.02;107562;1310;22264;-47
2023/09/03 08:52:28;;;;;;;3.50;1.90;;;;;;;19.68;69.91;99821.95;107541;1310;23403;-43
2023/09/03 08:54:54;;;;;;;3.20;1.60;;;;;;;19.73;67.62;99827.05;107559;1310;22432;-46
2023/09/03 08:57:26;;;;;;;2.60;2.20;;;;;;;19.85;68.80;99828.36;107583;1309;23223;-48
2023/09/03 08:59:51;;;;;;;4.20;1.90;;;;;;;19.98;68.78;99824.58;107345;1310;23145;-47
2023/09/03 09:02:17;;;;;;;3.60;2.20;;;;;;;20.13;67.46;99826.17;107546;1304;22316;-47
2023/09/03 09:04:43;;;;;;;5.10;2.10;;;;;;;20.21;64.74;99830.29;107573;1310;22420;-44
2023/09/03 09:07:09;;;;;;;10.30;2.60;;;;;;;20.34;65.55;99830.89;107539;1305;22980;-47
2023/09/03 09:09:36;;;;;;;3.10;1.80;;;;;;;20.61;65.81;99828.59;107536;1310;22576;-51
2023/09/03 09:12:18;;;;;;;4.40;1.90;;;;;;;20.85;64.81;99834.84;107567;1305;22260;-42
2023/09/03 09:14:54;;;;;;;1.50;1.40;;;;;;;20.94;64.95;99839.91;107558;1310;23211;-42
2023/09/03 09:17:19;;;;;;;1.60;1.20;;;;;;;20.85;62.00;99845.85;107555;1310;22464;-49
2023/09/03 09:19:44;;;;;;;2.30;1.50;;;;;;;21.00;61.29;99845.80;107567;1310;22918;-43
2023/09/03 09:22:10;;;;;;;4.80;1.50;;;;;;;21.62;62.62;99842.85;107522;1309;22440;-45
2023/09/03 09:24:45;;;;;;;4.20;1.40;;;;;;;22.35;62.18;99837.43;107550;1310;22417;-48
2023/09/03 09:27:19;;;;;;;1.90;1.40;;;;;;;22.62;59.43;99841.84;107533;1310;22257;-46
2023/09/03 09:29:45;;;;;;;1.80;1.10;;;;;;;22.41;54.56;99837.33;107569;1310;22434;-47
2023/09/03 09:32:27;;;;;;;3.30;1.50;;;;;;;22.42;55.85;99837.59;107571;1288;22425;-45
2023/09/03 09:34:52;;;;;;;5.10;1.10;;;;;;;22.92;56.83;99839.45;107549;1310;22520;-45
2023/09/03 09:37:17;;;;;;;2.00;1.40;;;;;;;23.60;55.84;99847.50;107557;1304;22355;-45
2023/09/03 09:39:44;;;;;;;1.50;1.30;;;;;;;24.19;53.57;99851.75;107687;1309;22237;-46
2023/09/03 09:42:12;;;;;;;2.10;1.10;;;;;;;24.60;51.47;99844.45;107673;1302;22593;-45
2023/09/03 09:44:50;;;;;;;1.60;1.20;;;;;;;25.10;48.25;99843.13;107669;1309;22312;-50
2023/09/03 09:47:17;;;;;;;2.50;1.00;;;;;;;25.68;48.17;99842.48;107669;1309;22290;-47
2023/09/03 09:49:42;;;;;;;2.80;1.50;;;;;;;26.10;44.96;99837.94;107658;1309;23502;-46
2023/09/03 09:52:08;;;;;;;1.60;1.20;;;;;;;26.19;47.49;99832.40;107668;1291;22339;-45
2023/09/03 09:54:41;;;;;;;1.90;1.10;;;;;;;26.12;42.70;99832.34;107675;1309;22922;-46
2023/09/03 09:57:12;;;;;;;3.40;1.10;;;;;;;25.90;41.65;99831.90;107657;1309;23067;-42
2023/09/03 09:59:39;;;;;;;3.80;1.20;;;;;;;25.49;43.24;99838.00;107670;1309;22146;-43
2023/09/03 10:02:12;;;;;;;3.60;1.30;;;;;;;25.42;43.48;99839.66;107667;1308;22525;-43
2023/09/03 10:04:42;;;;;;;1.40;1.30;;;;;;;25.93;43.20;99833.32;107667;1309;22240;-46
2023/09/03 10:07:08;;;;;;;1.50;1.20;;;;;;;26.35;41.83;99827.80;107655;1302;22314;-43
2023/09/03 10:09:35;;;;;;;2.20;1.60;;;;;;;26.74;40.33;99829.60;107673;1309;22452;-46
2023/09/03 10:12:01;;;;;;;1.30;1.20;;;;;;;27.36;40.21;99832.66;107692;1301;22346;-46
2023/09/03 10:14:27;;;;;;;1.80;1.10;;;;;;;28.00;39.48;99835.59;107665;1309;23442;-51
2023/09/03 10:16:55;;;;;;;1.70;1.20;;;;;;;28.48;36.11;99833.48;107673;1308;22733;-50
2023/09/03 10:19:24;;;;;;;1.60;1.50;;;;;;;28.89;35.30;99834.03;107583;1294;22541;-50
2023/09/03 10:21:52;;;;;;;1.30;1.20;;;;;;;29.41;34.83;99840.50;107550;1309;22505;-49
2023/09/03 10:24:19;;;;;;;1.00;0.90;;;;;;;29.78;34.40;99836.90;107677;1309;23106;-43
2023/09/03 10:26:49;;;;;;;2.40;1.10;;;;;;;30.01;32.29;99835.32;107642;1309;22452;-49
2023/09/03 10:29:19;;;;;;;2.10;1.20;;;;;;;30.13;32.54;99832.30;107631;1309;22266;-45
2023/09/03 10:31:46;;;;;;;1.30;1.20;;;;;;;29.99;33.13;99838.54;107679;1308;22326;-47
2023/09/03 10:34:14;;;;;;;1.90;1.10;;;;;;;30.44;31.87;99837.88;107531;1310;22286;-42
2023/09/03 10:37:03;;;;;;;1.30;1.20;;;;;;;30.25;31.24;99837.97;107522;1310;23015;-43
2023/09/03 10:39:28;;;;;;;1.40;1.10;;;;;;;29.91;31.13;99837.45;107526;1310;22346;-47
2023/09/03 10:42:23;;;;;;;3.20;1.10;;;;;;;29.48;31.50;99834.08;107532;1309;23293;-47
2023/09/03 10:44:59;;;;;;;5.50;1.30;;;;;;;29.42;32.74;99834.39;107651;1309;22224;-43
2023/09/03 10:47:25;;;;;;;;;;;;;;;29.44;32.47;99834.03;107670;1301;22670;-44
2023/09/03 10:49:52;;;;;;;1.60;1.10;;;;;;;29.38;32.05;99840.55;107676;1309;22471;-48
2023/09/03 10:52:34;;;;;;;1.20;1.20;;;;;;;28.69;32.06;99841.19;107681;1308;22349;-43
2023/09/03 10:55:12;;;;;;;1.80;1.30;;;;;;;27.93;33.10;99840.39;107667;1309;22236;-48
2023/09/03 10:57:37;;;;;;;4.20;1.20;;;;;;;27.30;34.60;99841.48;107663;1301;22251;-44
2023/09/03 11:00:06;;;;;;;1.50;1.40;;;;;;;26.84;35.67;99843.17;107684;1309;23441;-48
2023/09/03 11:02:33;;;;;;;2.20;1.40;;;;;;;26.17;36.67;99840.38;107659;1305;22234;-48
2023/09/03 11:05:14;;;;;;;;;;;;;;;25.73;38.45;99845.58;107669;1309;22530;-45
2023/09/03 11:07:40;;;;;;;2.60;1.80;;;;;;;25.85;39.83;99844.55;107678;1309;23175;-40
2023/09/03 11:10:21;;;;;;;2.70;1.50;;;;;;;27.00;39.14;99846.91;107680;1309;22362;-43
2023/09/03 11:12:50;;;;;;;2.90;1.60;;;;;;;27.91;36.31;99846.56;107666;1302;23130;-42
2023/09/03 11:15:15;;;;;;;2.10;1.80;;;;;;;28.99;35.73;99848.92;107657;1309;22248;-44
2023/09/03 11:17:50;;;;;;;1.80;1.50;;;;;;;29.91;33.47;99849.28;107657;1309;22263;-44
2023/09/03 11:20:33;;;;;;;3.70;1.60;;;;;;;30.79;33.38;99844.83;107658;1309;22354;-46
2023/09/03 11:22:59;;;;;;;1.40;1.10;;;;;;;31.49;32.44;99847.99;107673;1308;22219;-49
2023/09/03 11:25:32;;;;;;;2.20;1.30;;;;;;;32.10;30.40;99852.10;107671;1309;23173;-47
2023/09/03 11:27:59;;;;;;;3.60;1.30;;;;;;;32.65;29.18;99851.69;107658;1308;23190;-44
2023/09/03 11:30:25;;;;;;;1.20;1.10;;;;;;;33.12;29.00;99855.17;107732;1308;22459;-45
2023/09/03 11:32:50;;;;;;;1.30;1.10;;;;;;;33.15;27.30;99853.09;107731;1301;22347;-45
2023/09/03 11:35:15;;;;;;;1.10;1.10;;;;;;;32.38;28.30;99850.54;107728;1308;22873;-47
2023/09/03 11:37:41;;;;;;;1.30;1.20;;;;;;;31.36;29.70;99853.59;107741;1308;22237;-49
2023/09/03 11:40:07;;;;;;;1.30;1.20;;;;;;;29.71;30.76;99850.84;107740;1308;22884;-43
2023/09/03 11:42:32;;;;;;;1.60;1.40;;;;;;;29.10;31.98;99847.30;107752;1308;22476;-47
2023/09/03 11:44:58;;;;;;;4.10;1.40;;;;;;;28.58;32.99;99845.39;107725;1308;22274;-47
2023/09/03 11:47:23;;;;;;;3.00;1.60;;;;;;;28.08;34.08;99840.94;107711;1308;23750;-46
2023/09/03 11:49:49;;;;;;;2.50;1.40;;;;;;;27.53;34.75;99842.63;107723;1308;23102;-47
2023/09/03 11:52:17;;;;;;;5.70;1.50;;;;;;;26.83;36.04;99841.70;107733;1308;23375;-44
2023/09/03 11:54:43;;;;;;;2.00;1.40;;;;;;;27.36;35.85;99837.25;107727;1308;22479;-45
2023/09/03 11:57:14;;;;;;;2.60;1.40;;;;;;;27.54;35.02;99833.68;107746;1308;23123;-40
2023/09/03 11:59:41;;;;;;;1.80;1.40;;;;;;;27.98;35.00;99828.09;107761;1307;22252;-43
2023/09/03 12:02:07;;;;;;;;;;;;;;;29.17;32.49;99827.45;107752;1308;23190;-45
2023/09/03 12:04:32;;;;;;;5.60;1.60;;;;;;;30.39;31.29;99828.73;107730;1307;23163;-44
2023/09/03 12:06:58;;;;;;;1.80;1.20;;;;;;;31.19;29.85;99832.25;107732;1291;22424;-48
2023/09/03 12:09:26;;;;;;;1.40;1.20;;;;;;;32.17;29.16;99837.52;107714;1304;22311;-45
2023/09/03 12:11:52;;;;;;;1.70;1.20;;;;;;;32.82;26.95;99835.89;107738;1308;22463;-46
2023/09/03 12:14:30;;;;;;;2.10;1.30;;;;;;;33.65;26.32;99834.95;107704;1302;22428;-45
2023/09/03 12:16:56;;;;;;;3.60;1.30;;;;;;;34.43;25.94;99837.79;107722;1308;23223;-45
2023/09/03 12:19:21;;;;;;;3.00;0.90;;;;;;;34.87;24.77;99825.17;107716;1308;22263;-42
2023/09/03 12:21:50;;;;;;;1.60;1.00;;;;;;;34.83;23.89;99824.11;107704;1308;22480;-46
2023/09/03 12:24:16;;;;;;;1.70;1.20;;;;;;;34.95;24.35;99822.52;107726;1302;22264;-45
2023/09/03 12:26:41;;;;;;;1.30;1.00;;;;;;;35.47;23.65;99822.27;107744;1308;22320;-45
2023/09/03 12:29:21;;;;;;;1.00;0.90;;;;;;;35.88;22.68;99826.71;107729;1308;22351;-47
2023/09/03 12:31:46;;;;;;;1.20;1.10;;;;;;;34.40;23.31;99829.59;107741;1308;22329;-47
2023/09/03 12:34:15;;;;;;;3.30;1.40;;;;;;;32.27;25.59;99825.44;107714;1304;22285;-41
2023/09/03 12:36:55;;;;;;;5.70;1.10;;;;;;;31.39;27.20;99815.00;107749;1308;22955;-41
2023/09/03 12:39:29;;;;;;;1.20;1.10;;;;;;;30.61;28.46;99813.58;107727;1308;22463;-44
2023/09/03 12:41:54;;;;;;;1.30;1.10;;;;;;;29.89;29.47;99810.27;107782;1308;23217;-44
2023/09/03 12:44:20;;;;;;;1.40;1.20;;;;;;;30.10;29.86;99809.33;107801;1308;22258;-48
2023/09/03 12:46:45;;;;;;;3.70;1.20;;;;;;;30.89;29.29;99802.41;107780;1308;22443;-46
2023/09/03 12:49:10;;;;;;;2.60;1.30;;;;;;;31.66;27.80;99808.12;107823;1308;22238;-44
2023/09/03 12:51:39;;;;;;;3.00;1.10;;;;;;;31.73;27.31;99808.87;107787;1308;22276;-43
2023/09/03 12:54:05;;;;;;;3.20;1.10;;;;;;;32.06;26.93;99807.25;107804;1308;22267;-45
2023/09/03 12:56:31;;;;;;;1.80;1.40;;;;;;;32.49;26.30;99802.82;107790;1308;22276;-48
2023/09/03 12:59:04;;;;;;;1.80;1.10;;;;;;;33.17;26.24;99801.30;107792;1308;22274;-46
2023/09/03 13:01:29;;;;;;;1.30;1.20;;;;;;;33.33;25.27;99803.70;107830;1308;23177;-43
2023/09/03 13:03:54;;;;;;;1.30;1.10;;;;;;;34.23;25.45;99797.16;107552;1308;23183;-44
2023/09/03 13:06:20;;;;;;;1.30;1.20;;;;;;;34.37;24.46;99795.71;107794;1308;22474;-43
2023/09/03 13:08:45;;;;;;;1.10;1.00;;;;;;;33.37;25.60;99802.71;107788;1308;23239;-47
2023/09/03 13:11:11;;;;;;;1.50;1.20;;;;;;;32.93;24.68;99797.88;107780;1308;22294;-47
2023/09/03 13:13:37;;;;;;;1.90;1.00;;;;;;;33.10;23.95;99801.98;107809;1304;23226;-47
2023/09/03 13:16:03;;;;;;;2.50;1.10;;;;;;;32.80;23.81;99799.13;107809;1308;22549;-47
2023/09/03 13:18:28;;;;;;;1.10;1.00;;;;;;;32.56;23.45;99799.48;107817;1304;22371;-46
2023/09/03 13:20:54;;;;;;;1.80;1.20;;;;;;;32.75;23.57;99801.04;107781;1308;22319;-48
2023/09/03 13:23:19;;;;;;;1.00;0.90;;;;;;;32.52;24.02;99802.10;107777;1308;22439;-45
2023/09/03 13:25:44;;;;;;;1.10;1.00;;;;;;;31.88;25.04;99803.19;107070;1308;22949;-48
2023/09/03 13:28:10;;;;;;;2.20;1.50;;;;;;;30.52;27.07;99805.33;107824;1302;22265;-48
2023/09/03 13:30:37;;;;;;;4.60;1.20;;;;;;;29.80;28.69;99808.66;107789;1308;23173;-44
2023/09/03 13:33:03;;;;;;;;;;;;;;;29.46;29.53;99811.75;107825;1307;22469;-47
2023/09/03 13:35:29;;;;;;;1.80;1.10;;;;;;;29.01;30.04;99812.50;107798;1308;23151;-44
2023/09/03 13:37:54;;;;;;;2.10;1.40;;;;;;;28.47;30.10;99807.69;107799;1308;22522;-47
2023/09/03 13:40:20;;;;;;;1.50;1.30;;;;;;;28.07;31.47;99807.02;107819;1308;22495;-41
2023/09/03 13:42:45;;;;;;;2.50;1.60;;;;;;;27.71;32.20;99803.54;107792;1308;22554;-45
2023/09/03 13:45:12;;;;;;;4.30;1.30;;;;;;;27.34;31.66;99806.47;107801;1308;22308;-42
2023/09/03 13:47:38;;;;;;;1.20;1.10;;;;;;;27.14;31.85;99804.09;107813;1308;22259;-46
2023/09/03 13:50:05;;;;;;;1.20;1.10;;;;;;;26.98;32.24;99805.12;107788;1302;22458;-44
2023/09/03 13:52:31;;;;;;;1.50;1.20;;;;;;;26.78;31.83;99809.75;107790;1308;22465;-44
2023/09/03 13:54:56;;;;;;;2.20;1.40;;;;;;;26.41;31.62;99812.20;107803;1308;22270;-43
2023/09/03 13:57:24;;;;;;;1.50;1.40;;;;;;;26.07;32.36;99812.00;107796;1308;22291;-48
2023/09/03 13:59:49;;;;;;;1.80;1.40;;;;;;;25.69;33.28;99811.31;107816;1304;22452;-43
2023/09/03 14:02:14;;;;;;;1.80;1.50;;;;;;;25.74;34.03;99811.37;107804;1308;23185;-47
2023/09/03 14:04:40;;;;;;;2.20;1.10;;;;;;;25.80;33.14;99811.19;107781;1308;22281;-45
2023/09/03 14:07:05;;;;;;;1.70;1.30;;;;;;;25.76;33.47;99815.71;107762;1308;22307;-43
2023/09/03 14:09:30;;;;;;;1.40;1.30;;;;;;;25.70;33.52;99816.80;107791;1305;22296;-43
2023/09/03 14:11:56;;;;;;;2.40;1.40;;;;;;;25.55;33.09;99826.02;107793;1308;23289;-42
2023/09/03 14:14:21;;;;;;;1.80;1.30;;;;;;;25.34;32.95;99820.85;107802;1305;22354;-41
2023/09/03 14:16:46;;;;;;;1.60;1.30;;;;;;;25.18;33.14;99822.27;107792;1308;22236;-44
2023/09/03 14:19:12;;;;;;;1.90;1.60;;;;;;;25.09;33.68;99820.05;107781;1308;22519;-51
2023/09/03 14:21:37;;;;;;;1.80;1.30;;;;;;;24.92;33.74;99816.27;107766;1308;22274;-47
2023/09/03 14:24:03;;;;;;;2.00;1.50;;;;;;;24.86;34.30;99812.88;107751;1301;22253;-47
2023/09/03 14:26:28;;;;;;;2.00;1.40;;;;;;;24.63;34.57;99811.52;107779;1308;22464;-44
2023/09/03 14:28:54;;;;;;;1.30;1.20;;;;;;;24.49;34.77;99816.55;107775;1308;22655;-46